Swanage, United Kingdom
Current Conditions -  °F | °C
As of 2:50 PM on Sunday 23 Nov 2014 (Local Time) from EGHH Reporting Station
Broken Clouds Broken Clouds  
Wind Chill: 46°   Ceiling: 4900
Heat Index: 48°   Visibility: 6mi
Dew Point: 45°   Wind: 6mph
Humidity: 87%   Direction: 360°N
Pressure: 30.03"   Gusts: NA
Location:  50.61°N, 1.96°W
Report Text: EGHH 231450Z 36005KT 310V040 9999 FEW015 BKN049 09/07 Q1017
Loading
Personal Weather Stations






























Interactive Weather Map New forecast layout! Learn more

10-Day Weather Forecast

Advertisements
Track Severe Weather on mobile